createdAt,value
2018-03-30T00:02:10.042Z,6.70
2018-03-30T00:04:37.489Z,5.90
2018-03-30T00:07:07.801Z,6.30
2018-03-30T00:09:47.179Z,7.10
2018-03-30T00:12:14.818Z,5.97
2018-03-30T00:14:42.285Z,11.53
2018-03-30T00:17:09.729Z,6.87
2018-03-30T00:19:37.278Z,6.50
2018-03-30T00:22:04.738Z,5.87
2018-03-30T00:24:32.185Z,5.30
2018-03-30T00:26:59.665Z,6.37
2018-03-30T00:29:27.117Z,6.97
2018-03-30T00:31:54.569Z,5.60
2018-03-30T00:34:22.349Z,5.80
2018-03-30T00:36:49.781Z,6.93
2018-03-30T00:39:17.217Z,6.20
2018-03-30T00:41:44.905Z,6.93
2018-03-30T00:44:12.391Z,6.40
2018-03-30T00:46:39.859Z,7.00
2018-03-30T00:49:07.353Z,7.53
2018-03-30T00:51:34.794Z,5.80
2018-03-30T00:54:02.254Z,6.70
2018-03-30T00:56:29.717Z,10.67
2018-03-30T00:58:57.159Z,6.40
2018-03-30T01:01:24.617Z,6.70
2018-03-30T01:03:52.197Z,6.43
2018-03-30T01:06:19.640Z,6.27
2018-03-30T01:08:47.094Z,6.73
2018-03-30T01:11:14.801Z,6.50
2018-03-30T01:13:42.241Z,6.17
2018-03-30T01:16:09.883Z,5.20
2018-03-30T01:18:37.371Z,5.93
2018-03-30T01:21:04.818Z,5.63
2018-03-30T01:23:32.257Z,5.87
2018-03-30T01:25:59.733Z,7.13
2018-03-30T01:28:27.172Z,5.77
2018-03-30T01:30:54.613Z,6.70
2018-03-30T01:33:22.253Z,6.33
2018-03-30T01:35:49.688Z,6.10
2018-03-30T01:38:17.129Z,7.90
2018-03-30T01:40:44.752Z,7.07
2018-03-30T01:43:12.221Z,6.07
2018-03-30T01:45:39.681Z,6.63
2018-03-30T01:48:07.467Z,6.17
2018-03-30T01:50:34.906Z,5.27
2018-03-30T01:53:02.343Z,5.27
2018-03-30T01:55:29.906Z,6.00
2018-03-30T01:57:57.341Z,9.40
2018-03-30T02:00:24.777Z,5.43
2018-03-30T02:02:52.400Z,6.10
2018-03-30T02:05:19.849Z,6.93
2018-03-30T02:07:47.286Z,4.50
2018-03-30T02:10:14.997Z,6.17
2018-03-30T02:12:42.433Z,5.90
2018-03-30T02:15:09.883Z,5.57
2018-03-30T02:17:37.353Z,4.83
2018-03-30T02:20:04.802Z,4.50
2018-03-30T02:22:32.241Z,4.30
2018-03-30T02:24:59.805Z,6.30
2018-03-30T02:27:27.281Z,5.37
2018-03-30T02:29:54.717Z,6.17
2018-03-30T02:32:22.177Z,9.10
2018-03-30T02:34:49.622Z,10.57
2018-03-30T02:37:17.261Z,5.67
2018-03-30T02:39:44.699Z,5.93
2018-03-30T02:42:12.134Z,6.50
2018-03-30T02:44:39.642Z,5.60
2018-03-30T02:47:07.096Z,6.07
2018-03-30T02:49:34.951Z,5.00
2018-03-30T02:52:02.394Z,6.30
2018-03-30T02:54:29.843Z,6.20
2018-03-30T02:56:57.311Z,5.43
2018-03-30T02:59:24.758Z,5.27
2018-03-30T03:01:52.244Z,4.93
2018-03-30T03:04:19.689Z,4.77
2018-03-30T03:06:47.142Z,6.43
2018-03-30T03:09:14.627Z,5.40
2018-03-30T03:11:42.082Z,4.97
2018-03-30T03:14:09.657Z,5.70
2018-03-30T03:16:37.121Z,5.40
2018-03-30T03:19:04.621Z,6.00
2018-03-30T03:21:32.074Z,5.40
2018-03-30T03:23:59.513Z,6.00
2018-03-30T03:26:26.973Z,6.80
2018-03-30T03:28:54.425Z,6.20
2018-03-30T03:31:21.866Z,6.60
2018-03-30T03:33:49.346Z,7.00
2018-03-30T03:36:16.781Z,6.40
2018-03-30T03:38:44.420Z,6.63
2018-03-30T03:41:11.949Z,5.67
2018-03-30T03:43:39.349Z,6.23
2018-03-30T03:46:06.809Z,8.23
2018-03-30T03:48:34.270Z,5.20
2018-03-30T03:51:01.864Z,6.93
2018-03-30T03:53:29.313Z,8.07
2018-03-30T03:55:56.862Z,6.97
2018-03-30T03:58:24.322Z,6.57
2018-03-30T04:00:51.801Z,5.30
2018-03-30T04:03:19.405Z,6.40
2018-03-30T04:05:46.842Z,7.60
2018-03-30T04:08:14.273Z,7.13
2018-03-30T04:10:41.733Z,7.60
2018-03-30T04:13:09.205Z,5.20
2018-03-30T04:15:36.862Z,6.70
2018-03-30T04:18:04.298Z,6.77
2018-03-30T04:20:31.737Z,6.60
2018-03-30T04:22:59.204Z,5.97
2018-03-30T04:25:26.649Z,6.47
2018-03-30T04:27:54.121Z,6.23
2018-03-30T04:30:21.562Z,8.10
2018-03-30T04:32:49.020Z,6.67
2018-03-30T04:35:16.493Z,5.67
2018-03-30T04:37:43.936Z,5.67
2018-03-30T04:40:11.425Z,7.67
2018-03-30T04:42:38.861Z,8.23
2018-03-30T04:45:06.314Z,6.87
2018-03-30T04:47:33.767Z,9.03
2018-03-30T04:50:01.259Z,7.47
2018-03-30T04:52:28.802Z,6.50
2018-03-30T04:54:56.333Z,5.90
2018-03-30T04:57:23.772Z,7.60
2018-03-30T04:59:51.294Z,8.00
2018-03-30T05:02:18.765Z,7.17
2018-03-30T05:04:46.350Z,6.47
2018-03-30T05:07:13.787Z,7.37
2018-03-30T05:09:41.245Z,6.07
2018-03-30T05:12:08.818Z,9.10
2018-03-30T05:14:36.266Z,7.80
2018-03-30T05:17:03.967Z,7.00
2018-03-30T05:19:31.418Z,6.67
2018-03-30T05:21:58.879Z,7.20
2018-03-30T05:24:26.383Z,8.23
2018-03-30T05:26:53.817Z,8.80
2018-03-30T05:29:21.461Z,9.10
2018-03-30T05:31:48.909Z,8.57
2018-03-30T05:34:16.349Z,8.27
2018-03-30T05:36:43.811Z,8.27
2018-03-30T05:39:11.261Z,7.47
2018-03-30T05:41:38.875Z,13.10
2018-03-30T05:44:06.385Z,8.67
2018-03-30T05:46:33.831Z,8.40
2018-03-30T05:49:01.290Z,8.53
2018-03-30T05:51:28.725Z,8.87
2018-03-30T05:53:56.335Z,8.07
2018-03-30T05:56:23.778Z,6.80
2018-03-30T05:58:51.217Z,7.70
2018-03-30T06:01:18.676Z,7.13
2018-03-30T06:03:46.117Z,7.10
2018-03-30T06:06:13.816Z,6.37
2018-03-30T06:08:41.261Z,8.83
2018-03-30T06:11:08.701Z,8.87
2018-03-30T06:13:36.174Z,7.97
2018-03-30T06:16:03.641Z,10.17
2018-03-30T06:18:31.118Z,8.33
2018-03-30T06:20:58.550Z,7.73
2018-03-30T06:23:25.989Z,8.33
2018-03-30T06:25:53.477Z,8.23
2018-03-30T06:28:20.926Z,8.10
2018-03-30T06:30:48.405Z,9.30
2018-03-30T06:33:15.869Z,8.20
2018-03-30T06:35:43.313Z,8.97
2018-03-30T06:38:10.782Z,8.57
2018-03-30T06:40:38.241Z,9.60
2018-03-30T06:43:06.061Z,11.80
2018-03-30T06:45:33.505Z,8.87
2018-03-30T06:48:00.950Z,8.60
2018-03-30T06:50:28.466Z,10.97
2018-03-30T06:52:55.922Z,10.40
2018-03-30T06:55:23.404Z,10.27
2018-03-30T06:57:50.883Z,13.50
2018-03-30T07:00:18.359Z,13.50
2018-03-30T07:02:45.825Z,10.50
2018-03-30T07:05:13.290Z,12.53
2018-03-30T07:07:40.765Z,11.63
2018-03-30T07:10:08.212Z,10.50
2018-03-30T07:12:35.666Z,10.47
2018-03-30T07:15:03.130Z,12.07
2018-03-30T07:17:30.569Z,9.00
2018-03-30T07:19:58.311Z,10.53
2018-03-30T07:22:25.745Z,7.47
2018-03-30T07:24:53.202Z,11.67
2018-03-30T07:27:20.705Z,10.77
2018-03-30T07:29:48.145Z,10.23
2018-03-30T07:32:15.750Z,9.90
2018-03-30T07:34:43.226Z,11.03
2018-03-30T07:37:10.669Z,10.30
2018-03-30T07:39:38.157Z,10.77
2018-03-30T07:42:05.597Z,11.23
2018-03-30T07:44:33.203Z,9.20
2018-03-30T07:47:00.654Z,11.27
2018-03-30T07:49:28.093Z,11.80
2018-03-30T07:51:55.561Z,9.90
2018-03-30T07:54:23.006Z,10.70
2018-03-30T07:56:50.475Z,9.43
2018-03-30T07:59:17.919Z,9.80
2018-03-30T08:01:45.385Z,11.20
2018-03-30T08:04:12.864Z,10.07
2018-03-30T08:06:40.310Z,10.97
2018-03-30T08:09:08.046Z,11.03
2018-03-30T08:11:35.522Z,10.43
2018-03-30T08:14:02.973Z,10.40
2018-03-30T08:16:30.435Z,13.77
2018-03-30T08:18:57.901Z,10.97
2018-03-30T08:21:25.385Z,10.57
2018-03-30T08:23:52.839Z,10.10
2018-03-30T08:26:20.285Z,11.30
2018-03-30T08:28:47.758Z,14.30
2018-03-30T08:31:15.217Z,8.30
2018-03-30T08:33:42.697Z,10.03
2018-03-30T08:36:10.134Z,8.70
2018-03-30T08:38:37.577Z,11.47
2018-03-30T08:41:05.047Z,9.40
2018-03-30T08:43:32.503Z,10.00
2018-03-30T08:46:00.016Z,9.67
2018-03-30T08:48:27.470Z,10.53
2018-03-30T08:50:54.926Z,10.40
2018-03-30T08:53:22.389Z,9.63
2018-03-30T08:55:49.831Z,10.17
2018-03-30T08:58:17.386Z,11.43
2018-03-30T09:00:44.829Z,13.00
2018-03-30T09:03:12.293Z,10.33
2018-03-30T09:05:39.761Z,9.37
2018-03-30T09:08:07.201Z,9.47
2018-03-30T09:10:34.845Z,8.30
2018-03-30T09:13:02.298Z,11.00
2018-03-30T09:15:29.734Z,9.07
2018-03-30T09:17:57.212Z,10.03
2018-03-30T09:20:24.695Z,8.40
2018-03-30T09:22:52.278Z,9.63
2018-03-30T09:25:19.717Z,9.13
2018-03-30T09:27:47.157Z,9.13
2018-03-30T09:30:14.621Z,14.13
2018-03-30T09:32:42.071Z,7.23
2018-03-30T09:35:09.547Z,10.10
2018-03-30T09:37:36.991Z,10.17
2018-03-30T09:40:04.618Z,11.33
2018-03-30T09:42:32.202Z,8.63
2018-03-30T09:44:59.649Z,8.97
2018-03-30T09:47:27.453Z,11.73
2018-03-30T09:49:54.895Z,10.23
2018-03-30T09:52:22.549Z,8.93
2018-03-30T09:54:50.001Z,7.87
2018-03-30T09:57:17.445Z,7.30
2018-03-30T09:59:44.929Z,8.30
2018-03-30T10:02:12.422Z,8.33
2018-03-30T10:04:45.101Z,7.60
2018-03-30T10:07:12.541Z,8.23
2018-03-30T10:09:39.998Z,7.77
2018-03-30T10:12:07.463Z,7.87
2018-03-30T10:14:34.905Z,8.57
2018-03-30T10:17:02.554Z,8.53
2018-03-30T10:19:30.015Z,7.93
2018-03-30T10:21:57.465Z,7.67
2018-03-30T10:24:24.953Z,8.67
2018-03-30T10:26:52.393Z,11.70
2018-03-30T10:29:19.861Z,8.47
2018-03-30T10:31:47.306Z,7.67
2018-03-30T10:34:14.749Z,8.27
2018-03-30T10:36:42.210Z,8.23
2018-03-30T10:39:09.672Z,7.03
2018-03-30T10:41:37.453Z,6.87
2018-03-30T10:44:04.898Z,6.40
2018-03-30T10:46:32.358Z,7.47
2018-03-30T10:48:59.821Z,5.60
2018-03-30T10:51:27.282Z,5.90
2018-03-30T10:53:55.009Z,6.80
2018-03-30T10:56:22.454Z,4.90
2018-03-30T10:58:49.904Z,5.27
2018-03-30T11:01:17.377Z,7.00
2018-03-30T11:03:44.825Z,5.77
2018-03-30T11:06:12.453Z,5.87
2018-03-30T11:08:39.918Z,5.27
2018-03-30T11:11:07.440Z,4.70
2018-03-30T11:13:34.922Z,5.27
2018-03-30T11:16:02.362Z,4.70
2018-03-30T11:18:29.988Z,6.93
2018-03-30T11:20:57.438Z,4.57
2018-03-30T11:23:24.877Z,5.67
2018-03-30T11:25:52.354Z,4.63
2018-03-30T11:28:19.805Z,5.30
2018-03-30T11:30:47.274Z,5.27
2018-03-30T11:33:14.722Z,5.33
2018-03-30T11:35:42.173Z,3.87
2018-03-30T11:38:09.636Z,7.37
2018-03-30T11:40:37.082Z,5.13
2018-03-30T11:43:04.553Z,4.17
2018-03-30T11:45:32.025Z,3.83
2018-03-30T11:47:59.481Z,8.27
2018-03-30T11:50:26.984Z,9.23
2018-03-30T11:52:54.434Z,4.67
2018-03-30T11:55:22.103Z,4.53
2018-03-30T11:57:49.561Z,3.97
2018-03-30T12:00:17.003Z,3.40
2018-03-30T12:02:44.467Z,4.00
2018-03-30T12:05:11.913Z,3.93
2018-03-30T12:07:39.597Z,5.13
2018-03-30T12:10:07.095Z,4.97
2018-03-30T12:12:34.551Z,3.90
2018-03-30T12:15:02.018Z,5.17
2018-03-30T12:17:29.466Z,4.00
2018-03-30T12:19:56.948Z,5.00
2018-03-30T12:22:25.204Z,5.67
2018-03-30T12:24:52.645Z,4.07
2018-03-30T12:27:20.133Z,3.57
2018-03-30T12:29:47.591Z,5.17
2018-03-30T12:32:15.074Z,4.10
2018-03-30T12:34:42.517Z,4.33
2018-03-30T12:37:09.973Z,4.17
2018-03-30T12:39:37.477Z,6.70
2018-03-30T12:42:05.076Z,3.63
2018-03-30T12:44:32.554Z,9.17
2018-03-30T12:46:59.998Z,3.20
2018-03-30T12:49:27.441Z,3.90
2018-03-30T12:51:54.912Z,3.80
2018-03-30T12:54:22.392Z,3.90
2018-03-30T12:56:50.008Z,4.40
2018-03-30T12:59:17.453Z,3.67
2018-03-30T13:01:44.961Z,3.30
2018-03-30T13:04:12.498Z,3.50
2018-03-30T13:06:39.942Z,3.47
2018-03-30T13:09:07.514Z,3.60
2018-03-30T13:11:34.958Z,4.73
2018-03-30T13:14:02.403Z,4.23
2018-03-30T13:16:29.878Z,3.70
2018-03-30T13:18:57.316Z,4.03
2018-03-30T13:21:24.901Z,3.87
2018-03-30T13:23:52.372Z,5.10
2018-03-30T13:26:19.831Z,6.70
2018-03-30T13:28:47.308Z,4.97
2018-03-30T13:31:14.753Z,5.20
2018-03-30T13:33:42.237Z,4.37
2018-03-30T13:36:09.681Z,4.73
2018-03-30T13:38:37.173Z,4.77
2018-03-30T13:41:04.638Z,4.70
2018-03-30T13:43:32.402Z,4.50
2018-03-30T13:46:00.224Z,4.17
2018-03-30T13:48:27.663Z,4.97
2018-03-30T13:50:58.850Z,7.93
2018-03-30T13:53:44.045Z,4.20
2018-03-30T13:56:14.305Z,8.03
2018-03-30T13:58:44.186Z,3.90
2018-03-30T14:01:12.614Z,3.40
2018-03-30T14:03:42.033Z,3.90
2018-03-30T14:06:20.084Z,5.63
2018-03-30T14:08:52.397Z,3.13
2018-03-30T14:11:25.434Z,3.47
2018-03-30T14:13:52.902Z,4.40
2018-03-30T14:16:25.780Z,3.03
2018-03-30T14:19:00.719Z,3.13
2018-03-30T14:24:28.438Z,5.00
2018-03-30T14:27:13.455Z,5.53
2018-03-30T14:29:41.722Z,5.03
2018-03-30T14:32:29.029Z,6.10
2018-03-30T14:34:58.148Z,5.23
2018-03-30T14:37:27.444Z,6.60
2018-03-30T14:39:58.968Z,6.30
2018-03-30T14:42:32.891Z,6.00
2018-03-30T14:45:07.169Z,7.27
2018-03-30T14:47:36.434Z,5.97
2018-03-30T14:50:06.450Z,7.23
2018-03-30T14:52:44.674Z,5.50
2018-03-30T14:58:29.010Z,5.73
2018-03-30T15:01:01.427Z,5.57
2018-03-30T15:03:31.650Z,5.93
2018-03-30T15:06:08.896Z,5.70
2018-03-30T15:08:53.987Z,7.13
2018-03-30T15:14:19.354Z,6.27
2018-03-30T15:17:06.738Z,11.60
2018-03-30T15:19:35.913Z,7.53
2018-03-30T15:22:25.651Z,6.87
2018-03-30T15:24:56.819Z,8.23
2018-03-30T15:27:33.474Z,6.90
2018-03-30T15:30:05.320Z,7.40
2018-03-30T15:32:40.384Z,7.90
2018-03-30T15:35:13.337Z,6.93
2018-03-30T15:37:40.862Z,7.20
2018-03-30T15:40:20.034Z,8.63
2018-03-30T15:42:52.389Z,7.20
2018-03-30T15:45:21.565Z,6.33
2018-03-30T15:47:49.006Z,7.30
2018-03-30T15:50:16.484Z,5.73
2018-03-30T15:52:43.937Z,5.10
2018-03-30T15:55:11.915Z,5.87
2018-03-30T15:57:39.375Z,5.60
2018-03-30T16:00:08.405Z,6.20
2018-03-30T16:02:35.867Z,7.70
2018-03-30T16:05:03.323Z,5.60
2018-03-30T16:07:30.981Z,6.87
2018-03-30T16:10:09.913Z,6.90
2018-03-30T16:12:37.402Z,6.70
2018-03-30T16:15:04.842Z,6.70
2018-03-30T16:17:32.294Z,6.60
2018-03-30T16:19:59.264Z,6.37
2018-03-30T16:22:26.173Z,11.83
2018-03-30T16:24:53.145Z,6.77
2018-03-30T16:27:20.057Z,5.27
2018-03-30T16:29:46.978Z,7.20
2018-03-30T16:32:13.906Z,6.00
2018-03-30T16:34:41.353Z,6.77
2018-03-30T16:37:08.416Z,5.20
2018-03-30T16:39:35.330Z,5.90
2018-03-30T16:42:02.239Z,5.50
2018-03-30T16:44:29.170Z,6.50
2018-03-30T16:46:56.105Z,6.30
2018-03-30T16:49:23.187Z,6.20
2018-03-30T16:51:50.094Z,7.13
2018-03-30T16:54:17.022Z,5.20
2018-03-30T16:56:43.975Z,4.50
2018-03-30T16:59:10.924Z,10.97
2018-03-30T17:01:37.974Z,5.63
2018-03-30T17:04:04.895Z,4.27
2018-03-30T17:06:31.801Z,4.97
2018-03-30T17:08:58.721Z,4.97
2018-03-30T17:11:25.626Z,4.50
2018-03-30T17:13:52.673Z,4.33
2018-03-30T17:16:19.580Z,5.07
2018-03-30T17:18:46.489Z,4.67
2018-03-30T17:21:13.423Z,4.60
2018-03-30T17:23:40.330Z,4.03
2018-03-30T17:26:07.366Z,3.70
2018-03-30T17:28:34.275Z,3.60
2018-03-30T17:31:01.179Z,3.50
2018-03-30T17:33:28.123Z,3.40
2018-03-30T17:35:55.029Z,8.30
2018-03-30T17:38:22.150Z,3.80
2018-03-30T17:40:49.055Z,2.57
2018-03-30T17:43:15.969Z,3.10
2018-03-30T17:45:42.902Z,2.87
2018-03-30T17:48:09.825Z,3.10
2018-03-30T17:50:37.226Z,2.17
2018-03-30T17:53:04.146Z,2.67
2018-03-30T17:55:31.070Z,1.90
2018-03-30T17:57:57.997Z,2.37
2018-03-30T18:00:24.906Z,2.83
2018-03-30T18:02:51.981Z,2.10
2018-03-30T18:05:18.901Z,1.80
2018-03-30T18:07:45.821Z,4.10
2018-03-30T18:10:12.777Z,4.17
2018-03-30T18:12:39.712Z,2.53
2018-03-30T18:15:06.864Z,3.10
2018-03-30T18:17:33.780Z,5.43
2018-03-30T18:20:00.742Z,3.30
2018-03-30T18:22:27.686Z,3.07
2018-03-30T18:24:54.625Z,2.90
2018-03-30T18:27:21.713Z,3.63
2018-03-30T18:29:48.638Z,2.77
2018-03-30T18:32:15.578Z,3.40
2018-03-30T18:34:42.521Z,2.70
2018-03-30T18:37:09.524Z,2.67
2018-03-30T18:39:36.398Z,3.80
2018-03-30T18:42:03.353Z,2.00
2018-03-30T18:44:30.265Z,2.57
2018-03-30T18:46:57.193Z,2.63
2018-03-30T18:49:24.101Z,3.43
2018-03-30T18:51:51.298Z,3.90
2018-03-30T18:54:18.212Z,3.90
2018-03-30T18:56:45.770Z,4.50
2018-03-30T18:59:12.713Z,5.03
2018-03-30T19:01:39.622Z,4.27
2018-03-30T19:04:06.871Z,3.57
2018-03-30T19:06:33.845Z,3.83
2018-03-30T19:09:00.752Z,3.83
2018-03-30T19:11:27.686Z,4.40
2018-03-30T19:13:54.595Z,4.63
2018-03-30T19:16:21.885Z,3.20
2018-03-30T19:18:48.793Z,3.10
2018-03-30T19:21:15.714Z,1.50
2018-03-30T19:23:42.715Z,2.83
2018-03-30T19:26:09.653Z,2.33
2018-03-30T19:28:36.877Z,1.30
2018-03-30T19:31:03.816Z,1.17
2018-03-30T19:33:30.754Z,1.60
2018-03-30T19:35:58.906Z,1.83
2018-03-30T19:38:25.805Z,1.27
2018-03-30T19:40:52.934Z,2.10
2018-03-30T19:43:19.871Z,1.03
2018-03-30T19:45:46.806Z,1.30
2018-03-30T19:48:13.757Z,1.30
2018-03-30T19:50:40.700Z,1.50
2018-03-30T19:53:07.888Z,1.53
2018-03-30T19:55:34.806Z,1.53
2018-03-30T19:58:01.721Z,2.27
2018-03-30T20:00:28.710Z,1.47
2018-03-30T20:02:55.625Z,1.20
2018-03-30T20:05:22.881Z,1.30
2018-03-30T20:07:49.797Z,1.43
2018-03-30T20:10:16.705Z,1.70
2018-03-30T20:12:43.645Z,0.83
2018-03-30T20:15:10.565Z,0.57
2018-03-30T20:17:38.552Z,1.00
2018-03-30T20:20:05.490Z,1.10
2018-03-30T20:22:32.419Z,0.73
2018-03-30T20:24:59.354Z,1.43
2018-03-30T20:27:26.258Z,1.10
2018-03-30T20:29:53.575Z,1.00
2018-03-30T20:32:20.493Z,1.00
2018-03-30T20:34:47.443Z,1.13
2018-03-30T20:37:14.387Z,1.30
2018-03-30T20:39:41.320Z,1.27
2018-03-30T20:42:08.693Z,1.00
2018-03-30T20:44:35.603Z,1.10
2018-03-30T20:47:02.518Z,0.90
2018-03-30T20:49:29.450Z,1.57
2018-03-30T20:51:56.360Z,1.30
2018-03-30T20:54:23.380Z,2.00
2018-03-30T20:56:50.262Z,3.73
2018-03-30T20:59:17.174Z,1.63
2018-03-30T21:01:44.145Z,1.20
2018-03-30T21:04:11.060Z,1.73
2018-03-30T21:06:37.985Z,2.00
2018-03-30T21:09:04.890Z,1.60
2018-03-30T21:11:31.794Z,1.40
2018-03-30T21:13:58.738Z,1.50
2018-03-30T21:16:25.649Z,1.57
2018-03-30T21:18:52.596Z,1.70
2018-03-30T21:21:19.498Z,1.50
2018-03-30T21:23:46.405Z,1.80
2018-03-30T21:26:13.350Z,1.70
2018-03-30T21:28:40.253Z,2.87
2018-03-30T21:31:07.466Z,2.23
2018-03-30T21:33:34.375Z,2.17
2018-03-30T21:36:01.306Z,2.10
2018-03-30T21:38:28.229Z,2.47
2018-03-30T21:40:55.135Z,2.17
2018-03-30T21:43:22.209Z,2.60
2018-03-30T21:45:49.113Z,3.47
2018-03-30T21:48:16.018Z,6.40
2018-03-30T21:50:42.951Z,2.43
2018-03-30T21:53:09.885Z,2.70
2018-03-30T21:55:36.957Z,2.87
2018-03-30T21:58:03.861Z,1.87
2018-03-30T22:00:30.762Z,2.43
2018-03-30T22:02:57.710Z,2.70
2018-03-30T22:05:24.610Z,2.67
2018-03-30T22:07:51.777Z,2.43
2018-03-30T22:10:18.678Z,2.80
2018-03-30T22:12:45.578Z,2.57
2018-03-30T22:15:12.525Z,2.50
2018-03-30T22:17:39.457Z,2.97
2018-03-30T22:20:06.420Z,2.30
2018-03-30T22:22:33.321Z,4.20
2018-03-30T22:25:00.226Z,3.20
2018-03-30T22:27:27.146Z,3.03
2018-03-30T22:29:54.050Z,4.60
2018-03-30T22:32:21.149Z,2.43
2018-03-30T22:34:48.049Z,3.40
2018-03-30T22:37:14.957Z,4.37
2018-03-30T22:39:41.887Z,2.90
2018-03-30T22:42:08.812Z,3.70
2018-03-30T22:44:36.149Z,3.93
2018-03-30T22:47:03.053Z,4.17
2018-03-30T22:49:29.958Z,3.10
2018-03-30T22:51:56.877Z,3.30
2018-03-30T22:54:23.828Z,2.87
2018-03-30T22:56:50.757Z,3.10
2018-03-30T22:59:17.669Z,2.27
2018-03-30T23:01:44.572Z,2.97
2018-03-30T23:04:11.493Z,3.40
2018-03-30T23:06:38.397Z,3.23
2018-03-30T23:09:05.390Z,3.70
2018-03-30T23:11:32.305Z,3.37
2018-03-30T23:13:59.208Z,3.30
2018-03-30T23:16:26.137Z,4.17
2018-03-30T23:18:53.036Z,4.13
2018-03-30T23:21:20.213Z,4.80
2018-03-30T23:23:47.128Z,3.90
2018-03-30T23:26:14.030Z,4.93
2018-03-30T23:28:40.969Z,5.77
2018-03-30T23:31:07.881Z,4.90
2018-03-30T23:33:34.981Z,5.40
2018-03-30T23:36:01.886Z,5.10
2018-03-30T23:38:28.806Z,5.20
2018-03-30T23:40:55.750Z,4.97
2018-03-30T23:43:22.654Z,6.93
2018-03-30T23:45:49.773Z,7.20
2018-03-30T23:48:16.682Z,4.40
2018-03-30T23:50:43.578Z,5.70
2018-03-30T23:53:10.515Z,5.00
2018-03-30T23:55:37.438Z,5.47
2018-03-30T23:58:04.359Z,5.43
